Time;durP1;ratioP1;P1;durP2;ratioP2;P2;SDS_P1;SDS_P2;PMS_P1;PMS_P2;Temp;Humidity;BMP_temperature;BMP_pressure;BME280_temperature;BME280_humidity;BME280_pressure;Samples;Min_cycle;Max_cycle;Signal;HPM_P1;HPM_P2
2022/12/19 00:01:54;;;;;;;11.35;7.80;;;14.70;62.90;;;;;;4988814;28;20097;-43
2022/12/19 00:04:20;;;;;;;9.48;7.95;;;14.70;62.80;;;;;;4987735;28;20470;-41
2022/12/19 00:06:46;;;;;;;9.57;8.10;;;14.80;62.60;;;;;;4987857;28;20046;-43
2022/12/19 00:09:12;;;;;;;10.43;7.68;;;14.80;62.60;;;;;;4989269;28;20042;-42
2022/12/19 00:11:37;;;;;;;9.35;7.35;;;14.70;62.80;;;;;;4988621;28;20042;-41
2022/12/19 00:14:03;;;;;;;9.10;7.28;;;14.70;62.70;;;;;;4990786;28;20081;-41
2022/12/19 00:16:29;;;;;;;9.18;7.47;;;14.80;62.40;;;;;;4989304;28;20082;-41
2022/12/19 00:18:55;;;;;;;8.88;6.90;;;14.70;62.70;;;;;;4987587;28;21651;-43
2022/12/19 00:21:22;;;;;;;9.60;7.70;;;14.80;62.80;;;;;;4990546;28;20042;-41
2022/12/19 00:23:48;;;;;;;7.78;7.05;;;14.70;62.70;;;;;;4988138;28;20042;-43
2022/12/19 00:26:17;;;;;;;8.60;7.38;;;14.70;62.70;;;;;;4988771;28;20044;-42
2022/12/19 00:28:44;;;;;;;9.15;7.47;;;14.70;62.70;;;;;;4988034;28;20557;-43
2022/12/19 00:31:11;;;;;;;9.98;7.63;;;14.70;62.70;;;;;;4988986;28;20046;-41
2022/12/19 00:33:36;;;;;;;8.68;6.88;;;14.80;62.50;;;;;;4988243;28;20046;-39
2022/12/19 00:36:07;;;;;;;8.05;7.22;;;14.80;62.50;;;;;;4983332;28;20509;-41
2022/12/19 00:38:33;;;;;;;7.57;6.85;;;14.70;62.60;;;;;;4988140;28;20051;-41
2022/12/19 00:41:25;;;;;;;7.43;6.65;;;14.70;62.50;;;;;;4987732;28;20042;-40
2022/12/19 00:43:55;;;;;;;7.28;6.50;;;14.70;62.60;;;;;;4987165;28;20045;-41
2022/12/19 00:46:21;;;;;;;7.10;6.35;;;14.70;62.80;;;;;;4987771;28;20121;-43
2022/12/19 00:48:46;;;;;;;6.93;6.18;;;14.70;62.60;;;;;;4987154;28;20138;-40
2022/12/19 00:51:14;;;;;;;10.45;6.80;;;14.70;62.80;;;;;;4988546;28;20049;-41
2022/12/19 00:53:40;;;;;;;7.35;6.10;;;14.70;62.80;;;;;;4988845;28;20050;-41
2022/12/19 00:56:07;;;;;;;8.25;5.75;;;14.70;62.70;;;;;;4988259;28;20061;-14
2022/12/19 00:58:33;;;;;;;8.23;5.97;;;14.70;62.70;;;;;;4986569;28;20083;-14
2022/12/19 01:01:07;;;;;;;6.20;5.60;;;14.60;62.60;;;;;;4987778;28;20050;-13
2022/12/19 01:03:33;;;;;;;;;;;14.60;62.80;;;;;;4985892;28;20051;-14
2022/12/19 01:05:58;;;;;;;6.72;6.03;;;14.70;62.60;;;;;;4987153;28;19922;-12
2022/12/19 01:08:24;;;;;;;6.90;6.30;;;14.60;62.60;;;;;;4987153;28;20631;-13
2022/12/19 01:10:49;;;;;;;6.50;5.90;;;14.70;62.70;;;;;;4986776;28;20042;-13
2022/12/19 01:13:16;;;;;;;5.93;5.35;;;14.60;62.80;;;;;;4987168;28;20511;-12
2022/12/19 01:15:42;;;;;;;6.25;5.70;;;14.70;62.60;;;;;;4987910;28;20112;-13
2022/12/19 01:18:09;;;;;;;6.85;6.25;;;14.70;62.50;;;;;;4988839;28;20432;-13
2022/12/19 01:20:40;;;;;;;6.78;6.18;;;14.80;62.30;;;;;;4987509;28;20057;-12
2022/12/19 01:23:06;;;;;;;6.50;5.90;;;14.60;62.50;;;;;;4987331;28;20101;-13
2022/12/19 01:25:33;;;;;;;5.75;5.25;;;14.70;62.70;;;;;;4983382;28;20046;-13
2022/12/19 01:27:59;;;;;;;5.85;5.35;;;14.80;62.40;;;;;;4986659;28;20065;-13
2022/12/19 01:30:25;;;;;;;5.57;5.07;;;14.70;62.50;;;;;;4988356;28;20031;-13
2022/12/19 01:32:50;;;;;;;6.22;5.63;;;14.70;62.60;;;;;;4986451;28;20050;-13
2022/12/19 01:35:16;;;;;;;5.63;5.15;;;14.70;62.40;;;;;;4988290;28;20046;-12
2022/12/19 01:37:41;;;;;;;5.90;5.40;;;14.80;62.20;;;;;;4987350;28;20065;-13
2022/12/19 01:40:08;;;;;;;6.28;5.47;;;14.70;62.40;;;;;;4986266;28;20062;-13
2022/12/19 01:42:35;;;;;;;5.90;5.40;;;14.70;62.50;;;;;;4983713;28;20046;-13
2022/12/19 01:45:10;;;;;;;5.85;5.35;;;14.70;62.50;;;;;;4986906;28;20396;-12
2022/12/19 01:47:50;;;;;;;5.50;5.03;;;14.70;62.50;;;;;;4984096;28;20125;-13
2022/12/19 01:50:37;;;;;;;5.60;5.10;;;14.80;62.10;;;;;;5007555;28;20046;-12
2022/12/19 01:53:04;;;;;;;5.50;5.00;;;14.70;62.30;;;;;;4990831;28;20054;-13
2022/12/19 01:55:30;;;;;;;4.70;4.40;;;14.60;62.50;;;;;;4993143;28;20049;-14
2022/12/19 01:57:55;;;;;;;5.38;4.97;;;14.70;62.20;;;;;;4989981;28;20410;-13
2022/12/19 02:00:21;;;;;;;5.07;4.68;;;14.80;62.10;;;;;;4990587;28;20033;-13
2022/12/19 02:03:08;;;;;;;5.25;4.85;;;14.80;62.10;;;;;;4988412;28;20042;-13
2022/12/19 02:05:34;;;;;;;4.63;4.25;;;14.70;62.30;;;;;;4992623;28;20042;-13
2022/12/19 02:07:59;;;;;;;5.45;4.95;;;14.70;62.40;;;;;;4989696;28;20050;-15
2022/12/19 02:10:25;;;;;;;5.55;5.05;;;14.60;62.40;;;;;;4992040;28;20042;-13
2022/12/19 02:12:51;;;;;;;5.05;4.65;;;14.60;62.60;;;;;;4990880;28;20125;-12
2022/12/19 02:15:16;;;;;;;4.38;4.03;;;14.60;62.70;;;;;;4990821;28;20049;-12
2022/12/19 02:17:55;;;;;;;5.32;4.82;;;14.60;62.60;;;;;;4990697;28;20125;-15
2022/12/19 02:20:35;;;;;;;5.57;5.00;;;14.60;62.60;;;;;;4987422;28;20049;-12
2022/12/19 02:23:27;;;;;;;4.95;4.55;;;14.60;62.60;;;;;;4989091;28;20046;-13
2022/12/19 02:26:13;;;;;;;4.90;4.50;;;14.60;62.60;;;;;;4988143;28;21897;-14
2022/12/19 02:28:54;;;;;;;4.63;4.22;;;14.60;62.70;;;;;;4991147;28;20212;-12
2022/12/19 02:31:25;;;;;;;4.85;4.45;;;14.60;62.60;;;;;;5014956;28;20078;-13
2022/12/19 02:33:55;;;;;;;4.40;4.00;;;14.50;62.80;;;;;;4991263;28;20096;-13
2022/12/19 02:36:50;;;;;;;4.72;4.40;;;14.50;62.60;;;;;;4986540;28;20058;-13
2022/12/19 02:39:33;;;;;;;3.88;3.65;;;14.60;62.80;;;;;;4981720;28;20054;-14
2022/12/19 02:41:58;;;;;;;4.20;3.88;;;14.50;62.70;;;;;;4987421;28;20109;-12
2022/12/19 02:44:36;;;;;;;3.90;3.60;;;14.50;62.70;;;;;;4985776;28;20085;-13
2022/12/19 02:47:03;;;;;;;4.00;3.70;;;14.50;62.80;;;;;;5001487;28;20045;-12
2022/12/19 02:49:29;;;;;;;4.50;4.20;;;14.50;62.80;;;;;;4989883;28;20125;-12
2022/12/19 02:51:54;;;;;;;4.25;3.88;;;14.50;62.80;;;;;;4988988;28;20170;-13
2022/12/19 02:54:20;;;;;;;3.90;3.70;;;14.50;62.80;;;;;;4990789;28;20467;-12
2022/12/19 02:56:48;;;;;;;4.18;3.78;;;14.50;62.80;;;;;;4988944;28;20034;-13
2022/12/19 02:59:49;;;;;;;3.95;3.65;;;14.50;62.70;;;;;;4989559;28;20062;-13
2022/12/19 03:02:36;;;;;;;3.75;3.45;;;14.50;62.80;;;;;;4988675;28;20132;-13
2022/12/19 03:05:40;;;;;;;3.90;3.65;;;14.50;62.90;;;;;;4989054;28;20057;-12
2022/12/19 03:08:21;;;;;;;3.58;3.30;;;14.50;62.90;;;;;;4998055;28;20057;-14
2022/12/19 03:10:48;;;;;;;3.78;3.50;;;14.50;62.80;;;;;;4986602;28;20042;-12
2022/12/19 03:13:29;;;;;;;4.53;3.90;;;14.50;62.80;;;;;;4988748;28;20042;-12
2022/12/19 03:15:55;;;;;;;3.60;3.40;;;14.50;62.90;;;;;;4988578;28;20100;-12
2022/12/19 03:18:20;;;;;;;4.63;4.28;;;14.50;62.80;;;;;;4989176;28;20133;-12
2022/12/19 03:21:08;;;;;;;3.65;3.38;;;14.50;62.80;;;;;;4989741;28;20126;-12
2022/12/19 03:23:33;;;;;;;3.35;3.15;;;14.50;62.80;;;;;;4985861;28;20054;-13
2022/12/19 03:26:02;;;;;;;3.42;3.13;;;14.50;62.80;;;;;;4988699;28;20089;-13
2022/12/19 03:28:53;;;;;;;3.80;3.50;;;14.40;62.90;;;;;;4986222;28;20053;-15
2022/12/19 03:31:21;;;;;;;3.22;3.03;;;14.40;63.00;;;;;;5014829;28;20451;-13
2022/12/19 03:33:47;;;;;;;3.92;3.63;;;14.50;63.10;;;;;;4988571;28;20046;-12
2022/12/19 03:36:15;;;;;;;3.58;3.28;;;14.40;63.00;;;;;;4985214;28;20049;-12
2022/12/19 03:38:42;;;;;;;3.65;3.45;;;14.40;63.10;;;;;;4994183;28;20123;-13
2022/12/19 03:41:08;;;;;;;4.05;3.75;;;14.40;63.00;;;;;;4986096;28;20507;-12
2022/12/19 03:43:34;;;;;;;3.38;3.08;;;14.40;63.00;;;;;;4981724;28;20105;-12
2022/12/19 03:46:21;;;;;;;3.50;3.30;;;14.40;63.10;;;;;;4995092;28;20042;-12
2022/12/19 03:48:48;;;;;;;3.50;3.30;;;14.40;63.00;;;;;;4988716;28;20544;-17
2022/12/19 03:51:45;;;;;;;3.20;3.00;;;14.40;63.10;;;;;;4987940;28;20055;-13
2022/12/19 03:54:15;;;;;;;3.38;3.17;;;14.40;63.10;;;;;;4988492;28;20046;-14
2022/12/19 03:56:45;;;;;;;3.25;3.05;;;14.40;63.10;;;;;;4983792;28;20047;-13
2022/12/19 03:59:29;;;;;;;3.22;2.67;;;14.40;63.10;;;;;;4988420;28;20108;-12
2022/12/19 04:01:54;;;;;;;3.88;3.58;;;14.40;63.20;;;;;;4989823;28;20049;-13
2022/12/19 04:04:20;;;;;;;3.28;3.08;;;14.40;63.10;;;;;;4988172;28;20043;-16
2022/12/19 04:06:46;;;;;;;3.00;2.80;;;14.40;63.10;;;;;;4987912;28;20050;-12
2022/12/19 04:09:11;;;;;;;2.78;2.58;;;14.40;63.10;;;;;;4988534;28;20117;-13
2022/12/19 04:11:40;;;;;;;3.13;2.92;;;14.40;63.10;;;;;;4983993;28;20122;-14
2022/12/19 04:14:07;;;;;;;2.78;2.58;;;14.40;63.10;;;;;;5015426;28;20085;-14
2022/12/19 04:16:43;;;;;;;3.28;2.83;;;14.40;63.20;;;;;;4984765;28;20043;-13
2022/12/19 04:19:23;;;;;;;3.45;3.15;;;14.40;63.20;;;;;;4992492;28;20046;-12
2022/12/19 04:21:55;;;;;;;3.20;3.00;;;14.40;63.20;;;;;;4985447;28;20038;-13
2022/12/19 04:24:26;;;;;;;2.72;2.53;;;14.40;63.20;;;;;;4986748;28;20054;-14
2022/12/19 04:26:52;;;;;;;2.90;2.70;;;14.40;63.40;;;;;;4986228;28;20053;-13
2022/12/19 04:29:18;;;;;;;2.58;2.47;;;14.40;63.30;;;;;;4985767;28;20041;-12
2022/12/19 04:31:44;;;;;;;2.83;2.67;;;14.40;63.30;;;;;;4983623;28;20046;-14
2022/12/19 04:34:10;;;;;;;2.58;2.38;;;14.40;63.30;;;;;;4985458;28;20053;-13
2022/12/19 04:36:35;;;;;;;2.65;2.47;;;14.40;63.30;;;;;;4989812;28;20121;-13
2022/12/19 04:39:01;;;;;;;2.50;2.30;;;14.40;63.20;;;;;;4989906;28;20046;-14
2022/12/19 04:41:26;;;;;;;2.50;2.30;;;14.40;63.20;;;;;;4987974;28;20125;-13
2022/12/19 04:43:52;;;;;;;2.85;2.40;;;14.40;63.20;;;;;;4988192;28;20539;-13
2022/12/19 04:46:18;;;;;;;2.30;2.20;;;14.40;63.10;;;;;;4988731;28;20053;-12
2022/12/19 04:48:43;;;;;;;2.70;2.50;;;14.40;63.10;;;;;;4987950;28;20050;-13
2022/12/19 04:51:09;;;;;;;2.60;2.45;;;14.40;63.20;;;;;;4997938;28;20053;-13
2022/12/19 04:53:34;;;;;;;2.78;2.63;;;14.40;63.20;;;;;;4988017;28;20053;-12
2022/12/19 04:56:05;;;;;;;2.33;2.13;;;14.40;63.30;;;;;;4987751;28;20582;-12
2022/12/19 04:58:30;;;;;;;3.10;2.90;;;14.40;63.20;;;;;;4984549;28;20054;-12
2022/12/19 05:01:00;;;;;;;2.47;2.28;;;14.40;63.30;;;;;;4987970;28;20514;-13
2022/12/19 05:03:26;;;;;;;2.38;2.28;;;14.40;63.30;;;;;;4987789;28;20515;-12
2022/12/19 05:05:51;;;;;;;2.20;2.00;;;14.40;63.40;;;;;;4988084;28;20053;-19
2022/12/19 05:08:17;;;;;;;2.30;2.20;;;14.40;63.40;;;;;;4987481;28;20063;-12
2022/12/19 05:10:43;;;;;;;2.35;2.25;;;14.30;63.30;;;;;;4988052;28;20415;-13
2022/12/19 05:13:08;;;;;;;1.98;1.77;;;14.40;63.30;;;;;;4986676;28;20045;-12
2022/12/19 05:15:34;;;;;;;2.20;2.10;;;14.40;63.30;;;;;;4987680;28;20567;-13
2022/12/19 05:17:59;;;;;;;2.20;2.10;;;14.40;63.30;;;;;;4987704;28;20047;-13
2022/12/19 05:20:25;;;;;;;2.17;2.08;;;14.40;63.40;;;;;;4988183;28;20679;-12
2022/12/19 05:22:50;;;;;;;2.70;2.50;;;14.40;63.30;;;;;;4985671;28;20038;-12
2022/12/19 05:25:16;;;;;;;2.30;2.15;;;14.40;63.40;;;;;;4986334;28;20401;-19
2022/12/19 05:27:42;;;;;;;2.30;2.20;;;14.40;63.40;;;;;;4988827;28;20121;-13
2022/12/19 05:30:08;;;;;;;2.08;1.98;;;14.30;63.30;;;;;;4987453;28;20518;-13
2022/12/19 05:32:34;;;;;;;2.08;1.98;;;14.30;63.50;;;;;;4988399;28;20046;-13
2022/12/19 05:34:59;;;;;;;1.73;1.63;;;14.30;63.50;;;;;;4987651;28;20042;-13
2022/12/19 05:37:25;;;;;;;2.50;2.30;;;14.30;63.40;;;;;;4987047;28;20454;-13
2022/12/19 05:39:50;;;;;;;2.03;1.92;;;14.30;63.40;;;;;;4986556;28;20042;-13
2022/12/19 05:42:16;;;;;;;1.90;1.80;;;14.30;63.40;;;;;;4987141;28;20397;-13
2022/12/19 05:44:42;;;;;;;1.95;1.85;;;14.40;63.50;;;;;;4988925;28;20064;-13
2022/12/19 05:47:07;;;;;;;2.35;2.25;;;14.30;63.40;;;;;;4987544;28;20043;-13
2022/12/19 05:49:33;;;;;;;2.13;2.03;;;14.30;63.40;;;;;;4988009;28;20503;-12
2022/12/19 05:51:58;;;;;;;1.90;1.80;;;14.30;63.30;;;;;;4987447;28;20043;-13
2022/12/19 05:54:24;;;;;;;1.58;1.48;;;14.30;63.40;;;;;;4987190;28;20066;-12
2022/12/19 05:56:49;;;;;;;1.80;1.70;;;14.30;63.40;;;;;;4988370;28;20037;-12
2022/12/19 05:59:15;;;;;;;1.85;1.75;;;14.30;63.50;;;;;;4985389;28;20057;-13
2022/12/19 06:01:41;;;;;;;1.92;1.83;;;14.30;63.40;;;;;;4987902;28;20045;-15
2022/12/19 06:04:06;;;;;;;2.00;1.90;;;14.30;63.40;;;;;;4987354;28;20444;-12
2022/12/19 06:06:32;;;;;;;1.70;1.60;;;14.30;63.40;;;;;;4987193;28;20039;-13
2022/12/19 06:08:58;;;;;;;1.90;1.80;;;14.30;63.40;;;;;;4987012;28;20101;-15
2022/12/19 06:11:24;;;;;;;2.17;1.63;;;14.30;63.50;;;;;;4986877;28;20105;-14
2022/12/19 06:13:49;;;;;;;2.00;1.90;;;14.30;63.50;;;;;;4986928;28;20527;-15
2022/12/19 06:16:17;;;;;;;1.73;1.63;;;14.30;63.40;;;;;;4986214;28;20081;-12
2022/12/19 06:18:43;;;;;;;1.55;1.45;;;14.30;63.40;;;;;;4987966;28;20508;-12
2022/12/19 06:21:11;;;;;;;1.48;1.38;;;14.30;63.50;;;;;;4986260;28;20046;-13
2022/12/19 06:23:36;;;;;;;1.80;1.70;;;14.40;63.40;;;;;;4987743;28;20101;-13
2022/12/19 06:26:03;;;;;;;1.80;1.70;;;14.30;63.40;;;;;;4986618;28;20530;-13
2022/12/19 06:28:29;;;;;;;1.67;1.58;;;14.30;63.40;;;;;;4988697;28;20512;-13
2022/12/19 06:30:55;;;;;;;1.85;1.75;;;14.30;63.40;;;;;;4988351;28;20050;-12
2022/12/19 06:33:21;;;;;;;1.80;1.70;;;14.40;63.50;;;;;;4984387;28;20039;-13
2022/12/19 06:35:47;;;;;;;1.92;1.73;;;14.30;63.50;;;;;;4987034;28;20053;-12
2022/12/19 06:38:12;;;;;;;2.00;1.80;;;14.30;63.50;;;;;;4991111;28;20073;-12
2022/12/19 06:43:28;;;;;;;1.52;1.42;;;14.30;63.50;;;;;;4989728;28;20073;-12
2022/12/19 06:45:55;;;;;;;1.58;1.48;;;14.30;63.50;;;;;;4991085;28;20050;-13
2022/12/19 06:48:21;;;;;;;1.45;1.45;;;14.30;63.50;;;;;;4989886;28;20054;-12
2022/12/19 06:50:46;;;;;;;1.60;1.50;;;14.30;63.50;;;;;;4991598;28;20116;-13
2022/12/19 06:53:12;;;;;;;1.45;1.35;;;14.30;63.50;;;;;;4990016;28;20057;-12
2022/12/19 06:55:38;;;;;;;2.00;1.40;;;14.30;63.50;;;;;;4990934;28;20073;-41
2022/12/19 06:58:03;;;;;;;1.50;1.40;;;14.30;63.40;;;;;;4989180;28;20051;-40
2022/12/19 07:00:29;;;;;;;1.70;1.60;;;14.30;63.50;;;;;;4990796;28;20046;-42
2022/12/19 07:02:55;;;;;;;1.70;1.60;;;14.30;63.50;;;;;;4990487;28;20081;-42
2022/12/19 07:05:20;;;;;;;1.55;1.45;;;14.30;63.40;;;;;;4967432;28;20031;-43
2022/12/19 07:07:46;;;;;;;1.25;1.25;;;14.30;63.40;;;;;;4988021;28;20050;-42
2022/12/19 07:10:11;;;;;;;1.40;1.30;;;14.30;63.30;;;;;;4989978;28;20053;-41
2022/12/19 07:12:37;;;;;;;1.25;1.25;;;14.30;63.40;;;;;;4989241;28;20054;-44
2022/12/19 07:15:03;;;;;;;1.60;1.50;;;14.30;63.50;;;;;;4989502;28;20073;-41
2022/12/19 07:17:29;;;;;;;1.48;1.38;;;14.30;63.50;;;;;;4989737;28;20049;-41
2022/12/19 07:19:55;;;;;;;1.30;1.25;;;14.30;63.50;;;;;;4990012;28;20042;-42
2022/12/19 07:22:20;;;;;;;1.20;1.20;;;14.30;63.50;;;;;;4986932;28;20419;-40
2022/12/19 07:24:46;;;;;;;1.60;1.50;;;14.30;63.50;;;;;;4988538;28;20060;-42
2022/12/19 07:27:11;;;;;;;1.70;1.60;;;14.30;63.50;;;;;;4985981;28;20042;-41
2022/12/19 07:29:37;;;;;;;1.35;1.33;;;14.30;63.50;;;;;;4988774;28;20128;-42
2022/12/19 07:32:03;;;;;;;1.38;1.35;;;14.30;63.50;;;;;;4989714;28;20042;-47
2022/12/19 07:34:28;;;;;;;1.38;1.30;;;14.30;63.50;;;;;;4989667;28;20046;-40
2022/12/19 07:36:54;;;;;;;1.02;1.02;;;14.30;63.50;;;;;;4989364;28;20042;-40
2022/12/19 07:39:20;;;;;;;1.30;1.20;;;14.30;63.40;;;;;;4989194;28;20050;-40
2022/12/19 07:41:46;;;;;;;1.30;1.20;;;14.30;63.50;;;;;;4990183;28;20518;-42
2022/12/19 07:44:12;;;;;;;1.00;1.00;;;14.30;63.50;;;;;;4988714;28;20129;-40
2022/12/19 07:46:37;;;;;;;1.52;1.42;;;14.30;63.50;;;;;;4989205;28;20463;-41
2022/12/19 07:49:03;;;;;;;1.42;1.33;;;14.30;63.50;;;;;;4988833;28;20046;-40
2022/12/19 07:51:29;;;;;;;0.95;0.95;;;14.30;63.50;;;;;;4989158;28;20496;-41
2022/12/19 07:53:54;;;;;;;1.20;1.20;;;14.30;63.60;;;;;;4989751;28;20101;-42
2022/12/19 07:56:20;;;;;;;1.23;1.20;;;14.30;63.60;;;;;;4988003;28;20220;-40
2022/12/19 07:58:45;;;;;;;1.40;1.30;;;14.30;63.50;;;;;;4988908;28;20499;-41
2022/12/19 08:01:11;;;;;;;1.20;1.20;;;14.30;63.50;;;;;;4988740;28;20044;-41
2022/12/19 08:03:37;;;;;;;1.05;1.05;;;14.30;63.50;;;;;;4989600;28;20046;-42
2022/12/19 08:06:04;;;;;;;0.95;0.95;;;14.30;63.50;;;;;;4988689;28;20042;-40
2022/12/19 08:08:30;;;;;;;1.08;1.00;;;14.30;63.60;;;;;;4980660;28;20519;-43
2022/12/19 08:11:05;;;;;;;1.55;1.45;;;14.30;63.50;;;;;;4989639;28;20042;-41
2022/12/19 08:13:30;;;;;;;1.42;1.33;;;14.30;63.60;;;;;;4986592;28;20058;-40
2022/12/19 08:15:59;;;;;;;1.30;1.20;;;14.30;63.60;;;;;;4989126;28;20038;-41
2022/12/19 08:18:25;;;;;;;0.95;0.95;;;14.30;63.60;;;;;;4987837;28;20567;-40
2022/12/19 08:20:50;;;;;;;1.25;1.23;;;14.30;63.60;;;;;;4988990;28;20129;-41
2022/12/19 08:23:16;;;;;;;1.08;1.08;;;14.20;63.60;;;;;;4988843;28;20108;-43
2022/12/19 08:25:41;;;;;;;1.40;1.30;;;14.30;63.60;;;;;;4989272;28;20041;-43
2022/12/19 08:28:07;;;;;;;1.20;1.10;;;14.30;63.60;;;;;;4989251;28;20113;-40
2022/12/19 08:30:32;;;;;;;0.90;0.90;;;14.20;63.60;;;;;;4987461;28;20450;-41
2022/12/19 08:32:58;;;;;;;1.00;1.00;;;14.30;63.70;;;;;;4987771;28;20050;-43
2022/12/19 08:35:24;;;;;;;1.00;1.00;;;14.30;63.60;;;;;;4987475;28;20136;-41
2022/12/19 08:37:49;;;;;;;1.00;1.00;;;14.30;63.60;;;;;;4984070;28;20085;-41
2022/12/19 08:40:15;;;;;;;0.80;0.80;;;14.20;63.60;;;;;;4988300;28;20049;-43
2022/12/19 08:42:40;;;;;;;1.23;1.13;;;14.20;63.70;;;;;;4988762;28;20054;-42
2022/12/19 08:45:06;;;;;;;1.10;1.10;;;14.30;64.40;;;;;;4986934;28;20044;-41
2022/12/19 08:47:32;;;;;;;1.00;1.00;;;14.30;63.80;;;;;;4988820;28;20140;-41
2022/12/19 08:49:57;;;;;;;1.15;1.15;;;14.20;63.60;;;;;;4988015;28;20117;-43
2022/12/19 08:52:24;;;;;;;1.13;1.08;;;14.30;63.60;;;;;;4988144;28;20467;-41
2022/12/19 08:54:50;;;;;;;1.00;1.00;;;14.30;63.50;;;;;;4987845;28;20042;-41
2022/12/19 08:57:15;;;;;;;0.90;0.90;;;14.30;63.60;;;;;;4987941;28;20656;-41
2022/12/19 08:59:41;;;;;;;0.95;0.95;;;14.30;63.60;;;;;;4987377;28;20038;-41
2022/12/19 09:02:08;;;;;;;1.17;1.17;;;14.30;63.60;;;;;;4987926;28;20042;-40
2022/12/19 09:04:33;;;;;;;0.98;0.98;;;14.30;63.60;;;;;;4988625;28;20035;-43
2022/12/19 09:06:59;;;;;;;1.15;1.15;;;14.30;63.70;;;;;;4987753;28;20456;-41
2022/12/19 09:09:25;;;;;;;1.05;0.95;;;14.20;63.60;;;;;;4987106;28;20058;-40
2022/12/19 09:11:50;;;;;;;1.02;1.02;;;14.20;64.50;;;;;;4988543;28;20631;-41
2022/12/19 09:14:16;;;;;;;1.20;1.10;;;14.20;63.70;;;;;;4982524;28;20084;-41
2022/12/19 09:16:41;;;;;;;1.20;1.10;;;14.20;63.70;;;;;;4988108;28;20058;-42
2022/12/19 09:19:08;;;;;;;0.95;0.95;;;14.20;63.70;;;;;;4987702;28;20081;-41
2022/12/19 09:21:33;;;;;;;1.10;1.00;;;14.30;63.70;;;;;;4988261;28;20495;-46
2022/12/19 09:23:59;;;;;;;0.82;0.80;;;14.30;63.70;;;;;;4988340;28;20048;-43
2022/12/19 09:26:25;;;;;;;0.70;0.70;;;14.30;63.60;;;;;;4986877;28;20093;-42
2022/12/19 09:28:51;;;;;;;0.90;0.90;;;14.30;63.70;;;;;;4987615;28;20054;-42
2022/12/19 09:31:18;;;;;;;0.88;0.88;;;14.20;63.70;;;;;;4986714;28;20078;-41
2022/12/19 09:33:44;;;;;;;0.90;0.90;;;14.20;63.70;;;;;;4987030;28;20046;-43
2022/12/19 09:36:27;;;;;;;1.00;0.90;;;14.20;63.80;;;;;;4987374;28;20519;-40
2022/12/19 09:38:53;;;;;;;0.80;0.80;;;14.30;63.80;;;;;;4988243;28;20049;-40
2022/12/19 09:41:28;;;;;;;0.80;0.80;;;14.30;63.80;;;;;;4986861;28;20058;-40
2022/12/19 09:44:31;;;;;;;0.90;0.90;;;14.20;63.70;;;;;;4986416;28;20038;-41
2022/12/19 09:47:23;;;;;;;0.88;0.75;;;14.20;63.80;;;;;;4985360;28;20528;-43
2022/12/19 09:49:49;;;;;;;0.90;0.90;;;14.30;63.90;;;;;;4984703;28;20092;-43
2022/12/19 09:52:14;;;;;;;0.82;0.82;;;14.20;63.80;;;;;;4986281;28;20384;-41
2022/12/19 09:54:50;;;;;;;0.80;0.80;;;14.20;63.80;;;;;;4988758;28;20454;-41
2022/12/19 09:57:38;;;;;;;0.90;0.90;;;14.20;63.80;;;;;;4981455;28;20166;-41
2022/12/19 10:00:15;;;;;;;0.57;0.57;;;14.30;63.70;;;;;;4985293;28;20050;-43
2022/12/19 10:02:54;;;;;;;0.70;0.70;;;14.30;63.70;;;;;;4982850;28;20047;-41
2022/12/19 10:05:32;;;;;;;0.65;0.65;;;14.30;63.70;;;;;;5012847;28;20042;-41
2022/12/19 10:08:00;;;;;;;0.82;0.70;;;14.20;63.80;;;;;;4984329;28;20138;-43
2022/12/19 10:10:50;;;;;;;0.70;0.70;;;14.20;63.70;;;;;;4986976;28;20552;-41
2022/12/19 10:13:43;;;;;;;0.80;0.80;;;14.20;63.80;;;;;;4990481;28;20026;-40
2022/12/19 10:16:14;;;;;;;1.00;0.70;;;14.20;63.80;;;;;;4988227;28;20030;-43
2022/12/19 10:18:49;;;;;;;0.60;0.60;;;14.20;63.80;;;;;;5017274;28;20047;-41
2022/12/19 10:21:56;;;;;;;0.55;0.55;;;14.30;63.80;;;;;;4987118;28;20046;-41
2022/12/19 10:25:10;;;;;;;0.73;0.73;;;14.30;63.70;;;;;;5017946;28;20038;-43
2022/12/19 10:27:44;;;;;;;0.70;0.70;;;14.30;63.80;;;;;;4938053;28;20051;-43
2022/12/19 10:30:20;;;;;;;0.88;0.88;;;14.30;63.80;;;;;;4946699;28;20047;-40
2022/12/19 10:32:58;;;;;;;0.80;0.80;;;14.50;63.00;;;;;;4942012;28;20047;-41
2022/12/19 10:35:29;;;;;;;0.60;0.60;;;14.40;63.30;;;;;;4931835;28;20039;-41
2022/12/19 10:38:10;;;;;;;0.68;0.68;;;14.30;63.50;;;;;;4948408;28;20504;-41
2022/12/19 10:40:48;;;;;;;0.57;0.57;;;14.30;63.60;;;;;;4949699;28;20157;-41
2022/12/19 10:43:30;;;;;;;0.57;0.57;;;14.30;63.60;;;;;;4934299;29;20607;-43
2022/12/19 10:46:01;;;;;;;0.60;0.60;;;14.20;63.70;;;;;;4933300;29;20047;-40
2022/12/19 10:48:27;;;;;;;0.80;0.80;;;14.30;63.80;;;;;;4932809;29;20047;-42
2022/12/19 10:50:52;;;;;;;0.63;0.63;;;14.20;63.80;;;;;;4950138;28;20042;-40
2022/12/19 10:53:28;;;;;;;0.90;0.90;;;14.30;63.70;;;;;;4948327;28;20403;-40
2022/12/19 10:55:58;;;;;;;0.50;0.50;;;14.30;63.80;;;;;;4949241;28;20039;-41
2022/12/19 10:58:34;;;;;;;0.50;0.50;;;14.30;63.80;;;;;;4946794;28;20109;-43
2022/12/19 11:01:18;;;;;;;0.50;0.50;;;14.30;63.80;;;;;;4946466;28;20135;-41
2022/12/19 11:03:47;;;;;;;1.00;1.00;;;14.20;63.80;;;;;;4971172;28;20380;-43
2022/12/19 11:06:43;;;;;;;0.55;0.55;;;14.30;64.00;;;;;;4988854;28;20045;-40
2022/12/19 11:09:29;;;;;;;0.80;0.80;;;14.30;63.90;;;;;;4989598;28;20050;-41
2022/12/19 11:11:59;;;;;;;0.82;0.82;;;14.30;64.00;;;;;;4989795;28;20048;-42
2022/12/19 11:14:29;;;;;;;0.90;0.90;;;14.30;63.90;;;;;;4985711;28;20504;-41
2022/12/19 11:16:54;;;;;;;0.73;0.73;;;14.30;64.10;;;;;;4987720;28;20120;-43
2022/12/19 11:19:27;;;;;;;0.70;0.70;;;14.30;64.00;;;;;;4989661;28;20065;-43
2022/12/19 11:21:55;;;;;;;0.90;0.90;;;14.30;64.00;;;;;;4989818;28;20038;-42
2022/12/19 11:24:27;;;;;;;0.73;0.70;;;14.30;63.80;;;;;;4987478;28;20046;-41
2022/12/19 11:26:53;;;;;;;0.95;0.80;;;14.30;63.90;;;;;;4988155;28;20038;-41
2022/12/19 11:29:28;;;;;;;0.52;0.52;;;14.40;63.80;;;;;;4987666;28;20500;-41
2022/12/19 11:32:03;;;;;;;0.68;0.68;;;14.30;63.80;;;;;;4984498;28;20459;-41
2022/12/19 11:34:30;;;;;;;1.20;0.70;;;14.30;63.80;;;;;;4989640;28;20341;-42
2022/12/19 11:37:18;;;;;;;0.85;0.85;;;14.40;63.80;;;;;;4989096;28;20042;-41
2022/12/19 11:39:55;;;;;;;0.80;0.75;;;14.30;63.90;;;;;;4986435;28;20042;-41
2022/12/19 11:42:29;;;;;;;0.60;0.60;;;14.30;64.00;;;;;;4987552;28;20034;-41
2022/12/19 11:45:11;;;;;;;1.02;0.90;;;14.30;64.00;;;;;;4990718;28;20042;-41
2022/12/19 11:47:41;;;;;;;0.70;0.70;;;14.30;64.00;;;;;;4986028;28;20054;-43
2022/12/19 11:50:14;;;;;;;0.90;0.90;;;14.30;64.10;;;;;;4986085;28;20050;-43
2022/12/19 11:53:29;;;;;;;0.60;0.60;;;14.30;64.00;;;;;;5017192;28;20046;-40
2022/12/19 11:56:07;;;;;;;0.70;0.70;;;14.30;63.90;;;;;;4978655;28;20503;-43
2022/12/19 11:58:33;;;;;;;0.70;0.70;;;14.30;64.00;;;;;;4986690;28;20053;-43
2022/12/19 12:01:04;;;;;;;0.70;0.70;;;14.30;63.90;;;;;;4990402;28;20054;-39
2022/12/19 12:03:43;;;;;;;0.60;0.60;;;14.30;64.00;;;;;;4989307;28;20050;-41
2022/12/19 12:06:17;;;;;;;0.50;0.50;;;14.30;64.00;;;;;;4970703;28;20486;-43
2022/12/19 12:09:16;;;;;;;0.50;0.50;;;14.40;64.00;;;;;;4987255;28;20047;-41
2022/12/19 12:11:51;;;;;;;0.63;0.47;;;14.40;64.10;;;;;;4983915;28;20286;-41
2022/12/19 12:14:19;;;;;;;0.60;0.60;;;14.30;64.10;;;;;;4980393;28;20054;-40
2022/12/19 12:17:19;;;;;;;0.95;0.95;;;14.40;64.20;;;;;;4983433;28;20045;-43
2022/12/19 12:19:57;;;;;;;0.80;0.80;;;14.30;64.10;;;;;;4983263;28;20051;-43
2022/12/19 12:22:45;;;;;;;0.75;0.65;;;14.40;64.20;;;;;;5013636;28;20044;-39
2022/12/19 12:25:29;;;;;;;0.60;0.60;;;14.40;64.20;;;;;;4985427;28;20096;-41
2022/12/19 12:28:24;;;;;;;;;;;14.40;63.90;;;;;;4981678;28;20058;-41
2022/12/19 12:30:56;;;;;;;0.60;0.60;;;14.40;63.90;;;;;;4976774;28;20275;-41
2022/12/19 12:33:39;;;;;;;0.75;0.75;;;14.30;64.10;;;;;;4987395;28;20301;-41
2022/12/19 12:36:09;;;;;;;0.77;0.77;;;14.40;65.00;;;;;;4983800;28;20549;-42
2022/12/19 12:39:01;;;;;;;1.02;0.73;;;14.40;64.20;;;;;;4981646;28;20044;-40
2022/12/19 12:44:20;;;;;;;0.60;0.60;;;14.40;64.20;;;;;;4979767;28;20523;-41
2022/12/19 12:46:48;;;;;;;0.90;0.68;;;14.50;64.00;;;;;;4989822;28;20072;-42
2022/12/19 12:49:36;;;;;;;0.57;0.57;;;14.70;63.30;;;;;;4987997;28;20061;-42
2022/12/19 12:52:03;;;;;;;0.90;0.70;;;14.70;63.20;;;;;;5012450;28;20046;-41
2022/12/19 12:54:35;;;;;;;0.80;0.80;;;14.50;63.60;;;;;;4967533;28;20484;-41
2022/12/19 12:57:01;;;;;;;0.70;0.70;;;14.40;64.00;;;;;;4981820;28;20058;-41
2022/12/19 12:59:28;;;;;;;0.80;0.80;;;14.40;64.20;;;;;;4985541;28;20069;-43
2022/12/19 13:02:12;;;;;;;0.80;0.60;;;14.40;64.20;;;;;;4983469;28;20058;-41
2022/12/19 13:04:42;;;;;;;0.67;0.67;;;14.40;64.30;;;;;;4981840;28;20105;-41
2022/12/19 13:07:33;;;;;;;0.82;0.60;;;14.40;64.20;;;;;;4988011;28;20312;-43
2022/12/19 13:10:14;;;;;;;0.60;0.60;;;14.40;64.40;;;;;;4986904;28;20042;-41
2022/12/19 13:13:05;;;;;;;0.70;0.70;;;14.40;64.40;;;;;;4982505;28;20046;-44